createdAt,value
2022-09-21T00:00:41.109Z,102385.44
2022-09-21T00:03:38.221Z,102390.25
2022-09-21T00:06:35.958Z,102391.84
2022-09-21T00:09:33.180Z,102391.00
2022-09-21T00:12:31.476Z,102399.97
2022-09-21T00:15:29.293Z,102392.34
2022-09-21T00:18:26.406Z,102394.72
2022-09-21T00:21:23.890Z,102397.34
2022-09-21T00:24:21.172Z,102401.06
2022-09-21T00:27:18.041Z,102400.56
2022-09-21T00:30:15.519Z,102396.31
2022-09-21T00:33:13.532Z,102406.94
2022-09-21T00:36:12.478Z,102404.66
2022-09-21T00:39:09.476Z,102403.13
2022-09-21T00:42:23.419Z,102398.56
2022-09-21T00:45:23.337Z,102396.41
2022-09-21T00:48:20.010Z,102391.94
2022-09-21T00:51:17.328Z,102397.41
2022-09-21T00:54:18.048Z,102407.03
2022-09-21T00:57:14.956Z,102398.38
2022-09-21T01:00:12.540Z,102411.59
2022-09-21T01:03:09.662Z,102412.47
2022-09-21T01:06:07.607Z,102409.69
2022-09-21T01:09:04.553Z,102409.69
2022-09-21T01:12:49.279Z,102409.31
2022-09-21T01:16:07.663Z,102421.50
2022-09-21T01:19:27.400Z,102420.50
2022-09-21T01:22:58.666Z,102414.56
2022-09-21T01:26:15.005Z,102419.75
2022-09-21T01:29:17.061Z,102423.03
2022-09-21T01:32:20.900Z,102431.84
2022-09-21T01:35:20.557Z,102422.03
2022-09-21T01:38:23.881Z,102422.44
2022-09-21T01:41:22.999Z,102417.63
2022-09-21T01:44:22.963Z,102418.44
2022-09-21T01:47:20.350Z,102415.88
2022-09-21T01:50:17.497Z,102418.03
2022-09-21T01:53:26.152Z,102416.91
2022-09-21T01:56:43.978Z,102419.88
2022-09-21T01:59:55.797Z,102419.03
2022-09-21T02:02:55.858Z,102420.69
2022-09-21T02:05:53.850Z,102419.41
2022-09-21T02:08:51.085Z,102425.69
2022-09-21T02:11:48.459Z,102421.31
2022-09-21T02:14:45.805Z,102417.56
2022-09-21T02:18:14.234Z,102418.31
2022-09-21T02:21:41.699Z,102417.88
2022-09-21T02:24:47.262Z,102417.88
2022-09-21T02:28:13.829Z,102414.09
2022-09-21T02:31:52.281Z,102420.03
2022-09-21T02:34:53.998Z,102414.50
2022-09-21T02:37:56.774Z,102405.59
2022-09-21T02:40:56.869Z,102410.50
2022-09-21T02:44:02.602Z,102419.88
2022-09-21T02:47:13.157Z,102420.91
2022-09-21T02:50:13.153Z,102422.41
2022-09-21T02:53:10.262Z,102421.50
2022-09-21T02:56:07.544Z,102413.84
2022-09-21T02:59:04.848Z,102417.19
2022-09-21T03:02:02.139Z,102417.38
2022-09-21T03:04:59.091Z,102427.25
2022-09-21T03:07:56.494Z,102421.06
2022-09-21T03:10:53.946Z,102415.91
2022-09-21T03:13:51.498Z,102422.38
2022-09-21T03:16:48.386Z,102412.38
2022-09-21T03:19:45.480Z,102416.13
2022-09-21T03:22:42.477Z,102420.81
2022-09-21T03:25:39.490Z,102426.91
2022-09-21T03:28:36.052Z,102431.16
2022-09-21T03:31:34.628Z,102422.06
2022-09-21T03:34:34.381Z,102425.03
2022-09-21T03:37:31.277Z,102430.03
2022-09-21T03:40:28.576Z,102435.03
2022-09-21T03:43:25.277Z,102438.56
2022-09-21T03:46:23.134Z,102440.94
2022-09-21T03:49:20.448Z,102431.91
2022-09-21T03:52:17.384Z,102432.63
2022-09-21T03:55:14.938Z,102436.88
2022-09-21T03:58:12.408Z,102446.63
2022-09-21T04:01:09.834Z,102442.28
2022-09-21T04:04:07.538Z,102436.06
2022-09-21T04:07:04.649Z,102443.25
2022-09-21T04:10:05.492Z,102436.63
2022-09-21T04:13:03.125Z,102438.13
2022-09-21T04:16:00.479Z,102447.28
2022-09-21T04:18:57.506Z,102434.44
2022-09-21T04:21:56.051Z,102449.34
2022-09-21T04:24:53.890Z,102453.56
2022-09-21T04:27:52.302Z,102442.63
2022-09-21T04:30:53.753Z,102446.84
2022-09-21T04:33:52.075Z,102444.28
2022-09-21T04:36:49.140Z,102447.66
2022-09-21T04:39:46.872Z,102450.53
2022-09-21T04:42:44.316Z,102440.78
2022-09-21T04:45:41.278Z,102447.03
2022-09-21T04:48:39.372Z,102453.81
2022-09-21T04:51:36.885Z,102449.66
2022-09-21T04:54:34.353Z,102452.19
2022-09-21T04:57:31.548Z,102457.06
2022-09-21T05:00:28.358Z,102457.19
2022-09-21T05:03:25.627Z,102458.41
2022-09-21T05:06:22.708Z,102459.44
2022-09-21T05:09:38.100Z,102471.31
2022-09-21T05:12:39.695Z,102465.75
2022-09-21T05:15:39.499Z,102479.56
2022-09-21T05:18:36.460Z,102470.78
2022-09-21T05:21:33.383Z,102472.56
2022-09-21T05:24:30.954Z,102474.69
2022-09-21T05:27:28.642Z,102477.84
2022-09-21T05:30:25.787Z,102478.69
2022-09-21T05:33:23.243Z,102489.78
2022-09-21T05:36:42.193Z,102490.81
2022-09-21T05:39:39.821Z,102493.06
2022-09-21T05:42:37.823Z,102496.38
2022-09-21T05:45:35.504Z,102495.75
2022-09-21T05:48:43.226Z,102500.69
2022-09-21T05:52:17.821Z,102500.06
2022-09-21T05:55:29.708Z,102501.72
2022-09-21T05:59:04.409Z,102502.59
2022-09-21T06:02:11.018Z,102504.06
2022-09-21T06:05:12.491Z,102505.72
2022-09-21T06:08:09.569Z,102504.06
2022-09-21T06:11:06.489Z,102513.44
2022-09-21T06:14:03.310Z,102520.25
2022-09-21T06:17:00.599Z,102518.00
2022-09-21T06:19:57.609Z,102529.22
2022-09-21T06:23:00.365Z,102529.47
2022-09-21T06:25:58.640Z,102531.59
2022-09-21T06:28:56.555Z,102528.53
2022-09-21T06:31:53.289Z,102528.16
2022-09-21T06:34:50.579Z,102518.56
2022-09-21T06:37:47.818Z,102526.91
2022-09-21T06:40:44.469Z,102521.50
2022-09-21T06:43:41.382Z,102525.16
2022-09-21T06:46:38.513Z,102522.25
2022-09-21T06:49:39.198Z,102508.59
2022-09-21T06:52:40.621Z,102506.53
2022-09-21T06:55:37.218Z,102520.97
2022-09-21T06:58:34.759Z,102522.91
2022-09-21T07:01:31.640Z,102521.41
2022-09-21T07:04:29.492Z,102526.16
2022-09-21T07:07:30.327Z,102526.38
2022-09-21T07:10:27.673Z,102530.13
2022-09-21T07:13:25.329Z,102527.84
2022-09-21T07:16:23.422Z,102529.72
2022-09-21T07:19:20.567Z,102541.06
2022-09-21T07:22:17.650Z,102536.66
2022-09-21T07:25:14.626Z,102539.09
2022-09-21T07:28:12.074Z,102542.09
2022-09-21T07:31:16.658Z,102535.97
2022-09-21T07:34:13.594Z,102535.66
2022-09-21T07:37:10.731Z,102543.09
2022-09-21T07:40:08.354Z,102539.22
2022-09-21T07:43:05.582Z,102545.19
2022-09-21T07:46:02.619Z,102538.72
2022-09-21T07:48:59.510Z,102534.94
2022-09-21T07:52:01.446Z,102538.09
2022-09-21T07:55:00.617Z,102542.28
2022-09-21T07:58:16.285Z,102533.06
2022-09-21T08:01:13.530Z,102536.06
2022-09-21T08:04:10.976Z,102538.03
2022-09-21T08:07:09.078Z,102532.59
2022-09-21T08:10:07.303Z,102535.84
2022-09-21T08:13:04.638Z,102534.19
2022-09-21T08:16:02.241Z,102532.31
2022-09-21T08:18:59.945Z,102540.25
2022-09-21T08:21:58.116Z,102527.59
2022-09-21T08:24:55.988Z,102533.69
2022-09-21T08:27:58.292Z,102539.41
2022-09-21T08:30:59.354Z,102542.84
2022-09-21T08:33:57.654Z,102535.34
2022-09-21T08:36:55.885Z,102533.69
2022-09-21T08:39:53.738Z,102535.53
2022-09-21T08:43:00.328Z,102541.06
2022-09-21T08:45:57.539Z,102532.72
2022-09-21T08:49:16.398Z,102533.91
2022-09-21T08:52:16.903Z,102524.69
2022-09-21T08:55:19.352Z,102536.91
2022-09-21T08:58:29.788Z,102543.25
2022-09-21T09:01:51.987Z,102533.88
2022-09-21T09:05:18.458Z,102530.34
2022-09-21T09:08:44.359Z,102541.69
2022-09-21T09:11:49.053Z,102548.38
2022-09-21T09:15:19.257Z,102538.97
2022-09-21T09:18:43.999Z,102553.81
2022-09-21T09:21:42.056Z,102540.59
2022-09-21T09:24:43.684Z,102545.41
2022-09-21T09:27:42.153Z,102544.72
2022-09-21T09:30:39.405Z,102553.38
2022-09-21T09:33:53.119Z,102535.78
2022-09-21T09:37:02.699Z,102536.19
2022-09-21T09:40:00.371Z,102538.16
2022-09-21T09:43:19.821Z,102543.25
2022-09-21T09:46:22.724Z,102544.41
2022-09-21T09:49:54.140Z,102536.75
2022-09-21T09:52:54.341Z,102538.25
2022-09-21T09:55:55.785Z,102549.94
2022-09-21T09:58:54.572Z,102540.06
2022-09-21T10:02:05.274Z,102539.72
2022-09-21T10:05:06.384Z,102539.97
2022-09-21T10:08:03.967Z,102532.34
2022-09-21T10:11:00.734Z,102526.72
2022-09-21T10:13:57.671Z,102528.53
2022-09-21T10:16:54.715Z,102528.16
2022-09-21T10:20:01.478Z,102530.19
2022-09-21T10:22:59.254Z,102522.69
2022-09-21T10:26:01.340Z,102514.06
2022-09-21T10:29:00.149Z,102519.72
2022-09-21T10:32:02.307Z,102524.06
2022-09-21T10:35:00.969Z,102516.22
2022-09-21T10:38:11.033Z,102520.34
2022-09-21T10:41:08.442Z,102514.69
2022-09-21T10:44:14.077Z,102520.34
2022-09-21T10:47:17.931Z,102524.13
2022-09-21T10:50:35.235Z,102514.34
2022-09-21T10:53:36.363Z,102511.78
2022-09-21T10:56:33.812Z,102507.38
2022-09-21T10:59:32.396Z,102518.25
2022-09-21T11:02:35.645Z,102513.69
2022-09-21T11:05:34.759Z,102501.88
2022-09-21T11:08:55.134Z,102499.47
2022-09-21T11:12:13.833Z,102509.72
2022-09-21T11:15:25.498Z,102506.47
2022-09-21T11:18:47.819Z,102502.56
2022-09-21T11:22:01.733Z,102500.69
2022-09-21T11:25:36.917Z,102499.72
2022-09-21T11:28:47.557Z,102503.53
2022-09-21T11:32:09.465Z,102493.56
2022-09-21T11:35:19.197Z,102495.31
2022-09-21T11:38:36.752Z,102498.53
2022-09-21T11:41:40.554Z,102498.66
2022-09-21T11:44:58.400Z,102496.41
2022-09-21T11:48:08.646Z,102493.56
2022-09-21T11:51:06.729Z,102499.75
2022-09-21T11:54:16.752Z,102497.81
2022-09-21T11:57:38.119Z,102489.03
2022-09-21T12:01:03.508Z,102479.28
2022-09-21T12:04:20.034Z,102478.41
2022-09-21T12:07:50.138Z,102474.84
2022-09-21T12:11:12.694Z,102473.94
2022-09-21T12:14:42.426Z,102474.81
2022-09-21T12:17:49.818Z,102472.59
2022-09-21T12:20:55.523Z,102467.38
2022-09-21T12:23:55.250Z,102471.03
2022-09-21T12:26:56.745Z,102465.88
2022-09-21T12:29:57.241Z,102452.88
2022-09-21T12:33:04.180Z,102458.31
2022-09-21T12:36:41.008Z,102457.84
2022-09-21T12:39:46.188Z,102451.06
2022-09-21T12:42:47.032Z,102451.16
2022-09-21T12:46:08.205Z,102447.13
2022-09-21T12:49:21.257Z,102454.03
2022-09-21T12:52:21.662Z,102443.16
2022-09-21T12:55:21.969Z,102439.91
2022-09-21T12:58:30.348Z,102451.00
2022-09-21T13:01:43.734Z,102445.47
2022-09-21T13:05:01.268Z,102446.00
2022-09-21T13:08:20.086Z,102440.59
2022-09-21T13:11:21.538Z,102437.63
2022-09-21T13:14:18.849Z,102438.84
2022-09-21T13:17:34.189Z,102440.47
2022-09-21T13:20:37.864Z,102428.19
2022-09-21T13:23:42.046Z,102424.75
2022-09-21T13:26:52.438Z,102438.47
2022-09-21T13:29:49.608Z,102430.06
2022-09-21T13:32:54.750Z,102431.63
2022-09-21T13:36:02.060Z,102429.22
2022-09-21T13:39:17.616Z,102428.22
2022-09-21T13:42:33.105Z,102426.47
2022-09-21T13:45:30.060Z,102419.44
2022-09-21T13:48:29.620Z,102422.03
2022-09-21T13:51:27.117Z,102415.53
2022-09-21T13:54:26.150Z,102413.31
2022-09-21T13:57:38.448Z,102405.25
2022-09-21T14:00:54.839Z,102411.34
2022-09-21T14:03:57.544Z,102406.66
2022-09-21T14:06:55.771Z,102411.72
2022-09-21T14:10:04.954Z,102414.97
2022-09-21T14:13:02.827Z,102418.19
2022-09-21T14:16:45.658Z,102408.50
2022-09-21T14:19:42.789Z,102399.63
2022-09-21T14:22:40.280Z,102411.25
2022-09-21T14:25:56.774Z,102407.13
2022-09-21T14:28:54.170Z,102406.00
2022-09-21T14:31:54.636Z,102401.41
2022-09-21T14:34:56.695Z,102393.47
2022-09-21T14:38:01.750Z,102391.63
2022-09-21T14:41:04.979Z,102394.66
2022-09-21T14:44:01.912Z,102395.22
2022-09-21T14:47:29.421Z,102393.22
2022-09-21T14:50:30.066Z,102385.22
2022-09-21T14:53:39.358Z,102391.59
2022-09-21T14:56:39.953Z,102380.53
2022-09-21T14:59:49.519Z,102385.66
2022-09-21T15:02:47.205Z,102384.31
2022-09-21T15:05:44.678Z,102383.53
2022-09-21T15:09:15.323Z,102372.19
2022-09-21T15:12:19.243Z,102379.03
2022-09-21T15:15:27.152Z,102375.97
2022-09-21T15:18:25.890Z,102376.28
2022-09-21T15:21:30.495Z,102365.31
2022-09-21T15:24:34.103Z,102368.53
2022-09-21T15:27:33.256Z,102374.19
2022-09-21T15:30:33.269Z,102372.34
2022-09-21T15:33:33.321Z,102369.50
2022-09-21T15:36:31.382Z,102363.03
2022-09-21T15:39:30.840Z,102356.41
2022-09-21T15:42:28.418Z,102373.81
2022-09-21T15:45:25.845Z,102355.84
2022-09-21T15:48:23.518Z,102368.66
2022-09-21T15:51:27.073Z,102367.47
2022-09-21T15:54:37.194Z,102377.69
2022-09-21T15:57:41.608Z,102379.78
2022-09-21T16:00:40.045Z,102365.66
2022-09-21T16:03:37.101Z,102367.22
2022-09-21T16:06:45.005Z,102371.22
2022-09-21T16:09:43.734Z,102355.56
2022-09-21T16:12:44.466Z,102353.56
2022-09-21T16:15:42.970Z,102364.44
2022-09-21T16:18:46.801Z,102361.75
2022-09-21T16:21:44.138Z,102361.28
2022-09-21T16:24:55.643Z,102371.88
2022-09-21T16:27:56.785Z,102373.63
2022-09-21T16:30:56.235Z,102372.72
2022-09-21T16:33:53.019Z,102363.41
2022-09-21T16:36:51.513Z,102374.22
2022-09-21T16:39:48.773Z,102363.72
2022-09-21T16:42:46.608Z,102369.59
2022-09-21T16:45:45.242Z,102370.69
2022-09-21T16:48:41.790Z,102365.44
2022-09-21T16:51:39.377Z,102373.69
2022-09-21T16:54:37.570Z,102372.28
2022-09-21T16:57:34.942Z,102386.53
2022-09-21T17:00:37.891Z,102375.63
2022-09-21T17:03:34.856Z,102368.53
2022-09-21T17:06:31.734Z,102365.00
2022-09-21T17:09:39.472Z,102363.72
2022-09-21T17:12:38.251Z,102381.19
2022-09-21T17:15:36.389Z,102374.53
2022-09-21T17:18:35.838Z,102378.34
2022-09-21T17:21:33.160Z,102384.03
2022-09-21T17:24:49.169Z,102380.22
2022-09-21T17:27:49.299Z,102374.28
2022-09-21T17:30:46.571Z,102374.66
2022-09-21T17:33:44.017Z,102375.22
2022-09-21T17:36:40.984Z,102378.50
2022-09-21T17:39:38.199Z,102378.97
2022-09-21T17:42:38.233Z,102376.34
2022-09-21T17:46:04.800Z,102375.88
2022-09-21T17:49:02.918Z,102373.41
2022-09-21T17:52:19.334Z,102378.59
2022-09-21T17:55:16.428Z,102373.16
2022-09-21T17:58:34.748Z,102383.56
2022-09-21T18:01:42.171Z,102371.63
2022-09-21T18:04:38.883Z,102376.38
2022-09-21T18:07:36.227Z,102379.06
2022-09-21T18:10:34.399Z,102375.97
2022-09-21T18:13:48.792Z,102377.19
2022-09-21T18:16:52.091Z,102376.47
2022-09-21T18:20:18.455Z,102380.50
2022-09-21T18:23:40.522Z,102378.19
2022-09-21T18:26:39.277Z,102379.41
2022-09-21T18:29:40.433Z,102385.91
2022-09-21T18:32:41.104Z,102391.72
2022-09-21T18:35:44.717Z,102393.66
2022-09-21T18:39:12.199Z,102390.91
2022-09-21T18:42:28.703Z,102385.44
2022-09-21T18:45:32.060Z,102385.63
2022-09-21T18:49:06.819Z,102384.97
2022-09-21T18:52:23.010Z,102384.44
2022-09-21T18:55:28.119Z,102383.94
2022-09-21T18:58:25.364Z,102382.78
2022-09-21T19:01:23.586Z,102389.47
2022-09-21T19:04:21.220Z,102390.31
2022-09-21T19:07:23.886Z,102392.00
2022-09-21T19:10:44.372Z,102400.19
2022-09-21T19:14:05.955Z,102398.00
2022-09-21T19:17:31.113Z,102397.84
2022-09-21T19:20:40.343Z,102395.03
2022-09-21T19:24:03.386Z,102397.31
2022-09-21T19:27:31.257Z,102394.03
2022-09-21T19:30:29.556Z,102389.06
2022-09-21T19:33:48.805Z,102400.91
2022-09-21T19:36:49.246Z,102405.22
2022-09-21T19:39:46.222Z,102406.25
2022-09-21T19:43:10.820Z,102399.22
2022-09-21T19:46:41.681Z,102397.22
2022-09-21T19:50:16.861Z,102396.72
2022-09-21T19:53:33.420Z,102395.53
2022-09-21T19:56:52.125Z,102388.91
2022-09-21T19:59:52.360Z,102399.56
2022-09-21T20:02:58.187Z,102402.72
2022-09-21T20:05:59.632Z,102395.72
2022-09-21T20:09:08.471Z,102397.03
2022-09-21T20:12:25.929Z,102405.72
2022-09-21T20:15:28.826Z,102405.53
2022-09-21T20:18:30.550Z,102417.56
2022-09-21T20:21:39.556Z,102414.41
2022-09-21T20:24:54.236Z,102408.38
2022-09-21T20:27:58.521Z,102420.44
2022-09-21T20:30:55.104Z,102406.59
2022-09-21T20:33:52.067Z,102417.19
2022-09-21T20:36:49.211Z,102417.03
2022-09-21T20:39:46.460Z,102413.69
2022-09-21T20:42:43.869Z,102411.81
2022-09-21T20:45:41.296Z,102402.41
2022-09-21T20:48:38.461Z,102406.94
2022-09-21T20:51:36.449Z,102411.47
2022-09-21T20:54:33.262Z,102407.94
2022-09-21T20:57:31.948Z,102397.72
2022-09-21T21:00:29.388Z,102412.50
2022-09-21T21:03:26.075Z,102415.53
2022-09-21T21:06:23.336Z,102404.72
2022-09-21T21:09:20.322Z,102406.34
2022-09-21T21:12:17.896Z,102406.09
2022-09-21T21:15:15.972Z,102395.78
2022-09-21T21:18:13.515Z,102404.22
2022-09-21T21:21:10.298Z,102406.19
2022-09-21T21:24:25.805Z,102410.34
2022-09-21T21:27:24.167Z,102412.25
2022-09-21T21:30:23.825Z,102410.13
2022-09-21T21:33:22.252Z,102413.47
2022-09-21T21:36:19.074Z,102408.09
2022-09-21T21:39:16.005Z,102404.03
2022-09-21T21:42:13.781Z,102406.28
2022-09-21T21:45:11.334Z,102404.97
2022-09-21T21:48:09.498Z,102412.09
2022-09-21T21:51:06.845Z,102414.22
2022-09-21T21:54:04.363Z,102403.56
2022-09-21T21:57:01.551Z,102409.34
2022-09-21T22:00:00.133Z,102412.63
2022-09-21T22:02:57.846Z,102410.13
2022-09-21T22:05:56.036Z,102404.41
2022-09-21T22:08:53.437Z,102398.09
2022-09-21T22:11:50.474Z,102398.56
2022-09-21T22:14:47.784Z,102389.13
2022-09-21T22:17:45.369Z,102389.84
2022-09-21T22:20:42.444Z,102381.31
2022-09-21T22:23:39.592Z,102387.06
2022-09-21T22:26:40.953Z,102392.47
2022-09-21T22:29:39.063Z,102396.63
2022-09-21T22:32:36.604Z,102395.00
2022-09-21T22:35:34.130Z,102392.88
2022-09-21T22:38:31.905Z,102398.31
2022-09-21T22:41:30.376Z,102394.31
2022-09-21T22:44:27.335Z,102398.03
2022-09-21T22:47:24.258Z,102395.00
2022-09-21T22:50:21.380Z,102389.78
2022-09-21T22:53:17.997Z,102400.25
2022-09-21T22:56:19.997Z,102397.16
2022-09-21T22:59:17.428Z,102393.16
2022-09-21T23:02:14.350Z,102395.97
2022-09-21T23:05:13.579Z,102392.09
2022-09-21T23:08:10.399Z,102390.34
2022-09-21T23:11:14.192Z,102388.16
2022-09-21T23:14:11.514Z,102394.53
2022-09-21T23:17:08.620Z,102387.41
2022-09-21T23:20:06.412Z,102393.66
2022-09-21T23:23:03.734Z,102392.69
2022-09-21T23:26:27.730Z,102383.44
2022-09-21T23:29:25.249Z,102386.97
2022-09-21T23:32:23.198Z,102390.53
2022-09-21T23:35:20.381Z,102386.16
2022-09-21T23:38:17.716Z,102385.09
2022-09-21T23:41:20.721Z,102381.75
2022-09-21T23:44:18.445Z,102376.09
2022-09-21T23:47:15.485Z,102371.63
2022-09-21T23:50:12.396Z,102373.69
2022-09-21T23:53:09.331Z,102377.69
2022-09-21T23:56:07.174Z,102369.53
2022-09-21T23:59:05.579Z,102374.09
